sensor_id;sensor_type;location;lat;lon;timestamp;P1;durP1;ratioP1;P2;durP2;ratioP2
45232;SDS011;30969;51.052;17.056;2023-06-22T00:00:13;8.63;;;7.03;;
45232;SDS011;30969;51.052;17.056;2023-06-22T00:05:37;8.35;;;6.95;;
45232;SDS011;30969;51.052;17.056;2023-06-22T00:10:42;7.40;;;6.60;;
45232;SDS011;30969;51.052;17.056;2023-06-22T00:15:46;7.10;;;6.20;;
45232;SDS011;30969;51.052;17.056;2023-06-22T00:20:50;6.95;;;6.25;;
45232;SDS011;30969;51.052;17.056;2023-06-22T00:25:59;7.18;;;6.45;;
45232;SDS011;30969;51.052;17.056;2023-06-22T00:31:03;7.88;;;6.20;;
45232;SDS011;30969;51.052;17.056;2023-06-22T00:36:07;7.15;;;6.30;;
45232;SDS011;30969;51.052;17.056;2023-06-22T00:41:12;6.40;;;5.72;;
45232;SDS011;30969;51.052;17.056;2023-06-22T00:46:15;7.35;;;5.90;;
45232;SDS011;30969;51.052;17.056;2023-06-22T00:51:19;5.72;;;5.15;;
45232;SDS011;30969;51.052;17.056;2023-06-22T00:56:27;6.43;;;5.80;;
45232;SDS011;30969;51.052;17.056;2023-06-22T01:01:31;7.20;;;6.25;;
45232;SDS011;30969;51.052;17.056;2023-06-22T01:06:38;9.18;;;6.25;;
45232;SDS011;30969;51.052;17.056;2023-06-22T01:11:50;7.15;;;6.22;;
45232;SDS011;30969;51.052;17.056;2023-06-22T01:16:59;6.10;;;5.25;;
45232;SDS011;30969;51.052;17.056;2023-06-22T01:22:04;7.05;;;6.03;;
45232;SDS011;30969;51.052;17.056;2023-06-22T01:27:17;8.02;;;7.07;;
45232;SDS011;30969;51.052;17.056;2023-06-22T01:32:33;9.95;;;7.65;;
45232;SDS011;30969;51.052;17.056;2023-06-22T01:37:38;8.05;;;7.03;;
45232;SDS011;30969;51.052;17.056;2023-06-22T01:42:42;7.40;;;6.68;;
45232;SDS011;30969;51.052;17.056;2023-06-22T01:47:48;6.97;;;6.13;;
45232;SDS011;30969;51.052;17.056;2023-06-22T01:52:52;5.82;;;5.22;;
45232;SDS011;30969;51.052;17.056;2023-06-22T01:57:56;6.55;;;5.88;;
45232;SDS011;30969;51.052;17.056;2023-06-22T02:03:01;6.82;;;6.13;;
45232;SDS011;30969;51.052;17.056;2023-06-22T02:08:10;8.18;;;6.13;;
45232;SDS011;30969;51.052;17.056;2023-06-22T02:13:19;7.13;;;6.32;;
45232;SDS011;30969;51.052;17.056;2023-06-22T02:18:25;7.75;;;6.60;;
45232;SDS011;30969;51.052;17.056;2023-06-22T02:23:28;7.82;;;6.32;;
45232;SDS011;30969;51.052;17.056;2023-06-22T02:28:32;8.10;;;6.70;;
45232;SDS011;30969;51.052;17.056;2023-06-22T02:33:37;7.78;;;6.43;;
45232;SDS011;30969;51.052;17.056;2023-06-22T02:38:40;8.15;;;6.97;;
45232;SDS011;30969;51.052;17.056;2023-06-22T02:43:50;7.45;;;6.65;;
45232;SDS011;30969;51.052;17.056;2023-06-22T02:48:55;8.18;;;6.63;;
45232;SDS011;30969;51.052;17.056;2023-06-22T02:53:58;7.45;;;6.57;;
45232;SDS011;30969;51.052;17.056;2023-06-22T02:59:02;7.20;;;6.03;;
45232;SDS011;30969;51.052;17.056;2023-06-22T03:04:07;6.60;;;5.85;;
45232;SDS011;30969;51.052;17.056;2023-06-22T03:09:12;6.97;;;6.20;;
45232;SDS011;30969;51.052;17.056;2023-06-22T03:14:15;5.93;;;5.32;;
45232;SDS011;30969;51.052;17.056;2023-06-22T03:19:20;7.50;;;5.50;;
45232;SDS011;30969;51.052;17.056;2023-06-22T03:24:24;6.57;;;5.38;;
45232;SDS011;30969;51.052;17.056;2023-06-22T03:29:27;5.70;;;4.95;;
45232;SDS011;30969;51.052;17.056;2023-06-22T03:34:33;5.75;;;4.85;;
45232;SDS011;30969;51.052;17.056;2023-06-22T03:39:38;4.97;;;4.40;;
45232;SDS011;30969;51.052;17.056;2023-06-22T03:44:42;5.07;;;4.57;;
45232;SDS011;30969;51.052;17.056;2023-06-22T03:49:47;7.65;;;5.65;;
45232;SDS011;30969;51.052;17.056;2023-06-22T03:54:50;10.48;;;6.05;;
45232;SDS011;30969;51.052;17.056;2023-06-22T03:59:56;6.20;;;5.53;;
45232;SDS011;30969;51.052;17.056;2023-06-22T04:05:01;6.15;;;5.43;;
45232;SDS011;30969;51.052;17.056;2023-06-22T04:10:06;6.32;;;5.47;;
45232;SDS011;30969;51.052;17.056;2023-06-22T04:15:13;7.72;;;5.65;;
45232;SDS011;30969;51.052;17.056;2023-06-22T04:20:18;8.45;;;6.78;;
45232;SDS011;30969;51.052;17.056;2023-06-22T04:25:22;7.78;;;6.25;;
45232;SDS011;30969;51.052;17.056;2023-06-22T04:30:26;6.78;;;5.95;;
45232;SDS011;30969;51.052;17.056;2023-06-22T04:35:32;6.47;;;5.88;;
45232;SDS011;30969;51.052;17.056;2023-06-22T04:40:36;7.55;;;6.60;;
45232;SDS011;30969;51.052;17.056;2023-06-22T04:45:39;7.82;;;7.03;;
45232;SDS011;30969;51.052;17.056;2023-06-22T04:50:45;7.22;;;6.13;;
45232;SDS011;30969;51.052;17.056;2023-06-22T04:55:49;6.60;;;5.93;;
45232;SDS011;30969;51.052;17.056;2023-06-22T05:00:55;7.68;;;6.70;;
45232;SDS011;30969;51.052;17.056;2023-06-22T05:06:01;6.35;;;5.75;;
45232;SDS011;30969;51.052;17.056;2023-06-22T05:11:05;7.97;;;6.22;;
45232;SDS011;30969;51.052;17.056;2023-06-22T05:16:09;6.45;;;5.85;;
45232;SDS011;30969;51.052;17.056;2023-06-22T05:21:15;8.38;;;6.95;;
45232;SDS011;30969;51.052;17.056;2023-06-22T05:26:19;8.15;;;7.35;;
45232;SDS011;30969;51.052;17.056;2023-06-22T05:31:23;9.27;;;8.30;;
45232;SDS011;30969;51.052;17.056;2023-06-22T05:36:30;8.30;;;6.97;;
45232;SDS011;30969;51.052;17.056;2023-06-22T05:41:34;9.48;;;8.52;;
45232;SDS011;30969;51.052;17.056;2023-06-22T05:46:40;9.48;;;8.45;;
45232;SDS011;30969;51.052;17.056;2023-06-22T05:51:48;9.52;;;8.10;;
45232;SDS011;30969;51.052;17.056;2023-06-22T05:56:51;7.28;;;6.22;;
45232;SDS011;30969;51.052;17.056;2023-06-22T06:01:55;9.68;;;7.45;;
45232;SDS011;30969;51.052;17.056;2023-06-22T06:07:00;10.77;;;6.90;;
45232;SDS011;30969;51.052;17.056;2023-06-22T06:12:04;10.25;;;6.57;;
45232;SDS011;30969;51.052;17.056;2023-06-22T06:17:08;7.28;;;6.22;;
45232;SDS011;30969;51.052;17.056;2023-06-22T06:22:13;7.60;;;5.95;;
45232;SDS011;30969;51.052;17.056;2023-06-22T06:27:16;6.80;;;5.85;;
45232;SDS011;30969;51.052;17.056;2023-06-22T06:32:21;6.50;;;5.90;;
45232;SDS011;30969;51.052;17.056;2023-06-22T06:37:26;5.45;;;4.88;;
45232;SDS011;30969;51.052;17.056;2023-06-22T06:42:30;7.35;;;5.63;;
45232;SDS011;30969;51.052;17.056;2023-06-22T06:47:34;9.57;;;6.10;;
45232;SDS011;30969;51.052;17.056;2023-06-22T06:52:39;6.63;;;5.75;;
45232;SDS011;30969;51.052;17.056;2023-06-22T06:57:43;6.90;;;6.20;;
45232;SDS011;30969;51.052;17.056;2023-06-22T07:02:50;9.15;;;6.72;;
45232;SDS011;30969;51.052;17.056;2023-06-22T07:07:55;8.60;;;6.60;;
45232;SDS011;30969;51.052;17.056;2023-06-22T07:12:59;6.75;;;5.40;;
45232;SDS011;30969;51.052;17.056;2023-06-22T07:18:03;7.28;;;5.97;;
45232;SDS011;30969;51.052;17.056;2023-06-22T07:23:08;6.35;;;5.65;;
45232;SDS011;30969;51.052;17.056;2023-06-22T07:28:11;6.60;;;5.55;;
45232;SDS011;30969;51.052;17.056;2023-06-22T07:33:15;8.65;;;6.25;;
45232;SDS011;30969;51.052;17.056;2023-06-22T07:38:20;7.43;;;6.65;;
45232;SDS011;30969;51.052;17.056;2023-06-22T07:43:24;7.03;;;6.32;;
45232;SDS011;30969;51.052;17.056;2023-06-22T07:48:27;7.85;;;6.47;;
45232;SDS011;30969;51.052;17.056;2023-06-22T07:53:33;7.53;;;6.60;;
45232;SDS011;30969;51.052;17.056;2023-06-22T07:58:38;6.63;;;5.95;;
45232;SDS011;30969;51.052;17.056;2023-06-22T08:03:41;8.00;;;6.30;;
45232;SDS011;30969;51.052;17.056;2023-06-22T08:08:46;8.73;;;7.07;;
45232;SDS011;30969;51.052;17.056;2023-06-22T08:13:51;7.35;;;6.55;;
45232;SDS011;30969;51.052;17.056;2023-06-22T08:18:57;8.00;;;7.10;;
45232;SDS011;30969;51.052;17.056;2023-06-22T08:24:03;8.15;;;6.85;;
45232;SDS011;30969;51.052;17.056;2023-06-22T08:29:07;8.15;;;7.40;;
45232;SDS011;30969;51.052;17.056;2023-06-22T08:34:10;7.78;;;6.97;;
45232;SDS011;30969;51.052;17.056;2023-06-22T08:39:19;7.20;;;6.47;;
45232;SDS011;30969;51.052;17.056;2023-06-22T08:44:23;8.40;;;7.05;;
45232;SDS011;30969;51.052;17.056;2023-06-22T08:49:26;8.02;;;7.13;;
45232;SDS011;30969;51.052;17.056;2023-06-22T08:54:31;6.93;;;6.22;;
45232;SDS011;30969;51.052;17.056;2023-06-22T08:59:36;7.30;;;6.43;;
45232;SDS011;30969;51.052;17.056;2023-06-22T09:04:39;7.20;;;6.30;;
45232;SDS011;30969;51.052;17.056;2023-06-22T09:09:45;7.30;;;6.60;;
45232;SDS011;30969;51.052;17.056;2023-06-22T09:14:49;7.15;;;6.20;;
45232;SDS011;30969;51.052;17.056;2023-06-22T09:19:53;7.93;;;7.10;;
45232;SDS011;30969;51.052;17.056;2023-06-22T09:24:58;7.78;;;6.75;;
45232;SDS011;30969;51.052;17.056;2023-06-22T09:30:03;7.10;;;6.18;;
45232;SDS011;30969;51.052;17.056;2023-06-22T09:35:08;6.25;;;5.65;;
45232;SDS011;30969;51.052;17.056;2023-06-22T09:40:18;6.22;;;5.63;;
45232;SDS011;30969;51.052;17.056;2023-06-22T09:45:22;6.38;;;5.78;;
45232;SDS011;30969;51.052;17.056;2023-06-22T09:50:26;6.45;;;5.75;;
45232;SDS011;30969;51.052;17.056;2023-06-22T09:55:31;5.85;;;5.25;;
45232;SDS011;30969;51.052;17.056;2023-06-22T10:00:35;6.93;;;5.85;;
45232;SDS011;30969;51.052;17.056;2023-06-22T10:05:39;6.82;;;6.00;;
45232;SDS011;30969;51.052;17.056;2023-06-22T10:10:44;6.00;;;5.40;;
45232;SDS011;30969;51.052;17.056;2023-06-22T10:15:48;6.07;;;5.22;;
45232;SDS011;30969;51.052;17.056;2023-06-22T10:20:53;5.88;;;5.28;;
45232;SDS011;30969;51.052;17.056;2023-06-22T10:25:59;6.63;;;5.60;;
45232;SDS011;30969;51.052;17.056;2023-06-22T10:31:02;6.72;;;6.03;;
45232;SDS011;30969;51.052;17.056;2023-06-22T10:36:06;6.55;;;5.50;;
45232;SDS011;30969;51.052;17.056;2023-06-22T10:41:11;5.82;;;5.18;;
45232;SDS011;30969;51.052;17.056;2023-06-22T10:46:15;5.97;;;4.95;;
45232;SDS011;30969;51.052;17.056;2023-06-22T10:51:18;6.10;;;5.47;;
45232;SDS011;30969;51.052;17.056;2023-06-22T10:56:23;6.10;;;5.50;;
45232;SDS011;30969;51.052;17.056;2023-06-22T11:01:27;5.97;;;5.28;;
45232;SDS011;30969;51.052;17.056;2023-06-22T11:06:36;6.47;;;4.80;;
45232;SDS011;30969;51.052;17.056;2023-06-22T11:11:41;5.22;;;4.72;;
45232;SDS011;30969;51.052;17.056;2023-06-22T11:16:45;5.47;;;4.93;;
45232;SDS011;30969;51.052;17.056;2023-06-22T11:21:49;5.05;;;4.50;;
45232;SDS011;30969;51.052;17.056;2023-06-22T11:26:54;6.68;;;5.40;;
45232;SDS011;30969;51.052;17.056;2023-06-22T11:32:00;5.43;;;4.93;;
45232;SDS011;30969;51.052;17.056;2023-06-22T11:37:04;5.20;;;4.68;;
45232;SDS011;30969;51.052;17.056;2023-06-22T11:42:09;5.93;;;5.32;;
45232;SDS011;30969;51.052;17.056;2023-06-22T11:47:13;5.55;;;5.03;;
45232;SDS011;30969;51.052;17.056;2023-06-22T11:52:16;6.35;;;4.47;;
45232;SDS011;30969;51.052;17.056;2023-06-22T11:57:22;4.53;;;4.13;;
45232;SDS011;30969;51.052;17.056;2023-06-22T12:02:26;4.18;;;3.78;;
45232;SDS011;30969;51.052;17.056;2023-06-22T12:07:30;5.18;;;4.68;;
45232;SDS011;30969;51.052;17.056;2023-06-22T12:12:34;4.25;;;3.80;;
45232;SDS011;30969;51.052;17.056;2023-06-22T12:17:39;4.30;;;3.72;;
45232;SDS011;30969;51.052;17.056;2023-06-22T12:22:44;3.92;;;3.53;;
45232;SDS011;30969;51.052;17.056;2023-06-22T12:27:48;3.42;;;3.10;;
45232;SDS011;30969;51.052;17.056;2023-06-22T12:32:52;4.07;;;3.67;;
45232;SDS011;30969;51.052;17.056;2023-06-22T12:37:57;5.47;;;3.70;;
45232;SDS011;30969;51.052;17.056;2023-06-22T12:43:02;4.05;;;3.65;;
45232;SDS011;30969;51.052;17.056;2023-06-22T12:48:06;4.20;;;3.60;;
45232;SDS011;30969;51.052;17.056;2023-06-22T12:53:10;4.75;;;3.40;;
45232;SDS011;30969;51.052;17.056;2023-06-22T12:58:15;4.00;;;3.60;;
45232;SDS011;30969;51.052;17.056;2023-06-22T13:03:19;4.03;;;3.25;;
45232;SDS011;30969;51.052;17.056;2023-06-22T13:08:22;4.07;;;3.33;;
45232;SDS011;30969;51.052;17.056;2023-06-22T13:13:47;5.38;;;3.35;;
45232;SDS011;30969;51.052;17.056;2023-06-22T13:18:51;3.85;;;2.85;;
45232;SDS011;30969;51.052;17.056;2023-06-22T13:23:54;3.58;;;3.28;;
45232;SDS011;30969;51.052;17.056;2023-06-22T13:28:59;3.88;;;3.45;;
45232;SDS011;30969;51.052;17.056;2023-06-22T13:34:03;4.35;;;3.95;;
45232;SDS011;30969;51.052;17.056;2023-06-22T13:39:07;6.30;;;4.35;;
45232;SDS011;30969;51.052;17.056;2023-06-22T13:44:12;4.13;;;3.50;;
45232;SDS011;30969;51.052;17.056;2023-06-22T13:49:15;4.07;;;3.67;;
45232;SDS011;30969;51.052;17.056;2023-06-22T13:54:20;5.43;;;4.03;;
45232;SDS011;30969;51.052;17.056;2023-06-22T14:04:35;5.15;;;3.80;;
45232;SDS011;30969;51.052;17.056;2023-06-22T14:09:39;4.80;;;4.30;;
45232;SDS011;30969;51.052;17.056;2023-06-22T14:14:44;4.53;;;3.95;;
45232;SDS011;30969;51.052;17.056;2023-06-22T14:19:48;4.68;;;3.92;;
45232;SDS011;30969;51.052;17.056;2023-06-22T14:24:58;4.78;;;4.20;;
45232;SDS011;30969;51.052;17.056;2023-06-22T14:30:03;5.25;;;4.10;;
45232;SDS011;30969;51.052;17.056;2023-06-22T14:35:08;4.97;;;4.47;;
45232;SDS011;30969;51.052;17.056;2023-06-22T14:40:12;7.78;;;4.40;;
45232;SDS011;30969;51.052;17.056;2023-06-22T14:45:17;4.43;;;3.70;;
45232;SDS011;30969;51.052;17.056;2023-06-22T14:50:20;4.60;;;4.18;;
45232;SDS011;30969;51.052;17.056;2023-06-22T14:55:24;4.35;;;3.95;;
45232;SDS011;30969;51.052;17.056;2023-06-22T15:00:29;4.28;;;3.88;;
45232;SDS011;30969;51.052;17.056;2023-06-22T15:05:33;4.35;;;3.95;;
45232;SDS011;30969;51.052;17.056;2023-06-22T15:10:36;3.83;;;3.53;;
45232;SDS011;30969;51.052;17.056;2023-06-22T15:15:41;4.15;;;3.70;;
45232;SDS011;30969;51.052;17.056;2023-06-22T15:20:45;3.85;;;3.45;;
45232;SDS011;30969;51.052;17.056;2023-06-22T15:25:49;7.30;;;3.72;;
45232;SDS011;30969;51.052;17.056;2023-06-22T15:30:55;4.13;;;3.72;;
45232;SDS011;30969;51.052;17.056;2023-06-22T15:35:59;3.90;;;3.50;;
45232;SDS011;30969;51.052;17.056;2023-06-22T15:41:06;4.53;;;3.72;;
45232;SDS011;30969;51.052;17.056;2023-06-22T15:46:15;4.35;;;3.95;;
45232;SDS011;30969;51.052;17.056;2023-06-22T15:51:19;4.38;;;3.50;;
45232;SDS011;30969;51.052;17.056;2023-06-22T15:56:23;3.90;;;3.50;;
45232;SDS011;30969;51.052;17.056;2023-06-22T16:01:28;3.80;;;3.17;;
45232;SDS011;30969;51.052;17.056;2023-06-22T16:06:38;3.90;;;3.33;;
45232;SDS011;30969;51.052;17.056;2023-06-22T16:11:43;3.63;;;3.30;;
45232;SDS011;30969;51.052;17.056;2023-06-22T16:16:48;4.22;;;3.40;;
45232;SDS011;30969;51.052;17.056;2023-06-22T16:21:52;4.82;;;3.42;;
45232;SDS011;30969;51.052;17.056;2023-06-22T16:26:56;5.65;;;4.10;;
45232;SDS011;30969;51.052;17.056;2023-06-22T16:32:01;4.25;;;3.28;;
45232;SDS011;30969;51.052;17.056;2023-06-22T16:37:05;3.80;;;3.30;;
45232;SDS011;30969;51.052;17.056;2023-06-22T16:42:11;3.40;;;3.10;;
45232;SDS011;30969;51.052;17.056;2023-06-22T16:47:17;3.90;;;3.50;;
45232;SDS011;30969;51.052;17.056;2023-06-22T16:52:21;3.72;;;3.15;;
45232;SDS011;30969;51.052;17.056;2023-06-22T16:57:24;3.30;;;2.90;;
45232;SDS011;30969;51.052;17.056;2023-06-22T17:02:29;4.90;;;3.53;;
45232;SDS011;30969;51.052;17.056;2023-06-22T17:07:36;5.38;;;3.55;;
45232;SDS011;30969;51.052;17.056;2023-06-22T17:12:44;3.67;;;3.00;;
45232;SDS011;30969;51.052;17.056;2023-06-22T17:17:50;4.22;;;3.63;;
45232;SDS011;30969;51.052;17.056;2023-06-22T17:22:55;5.32;;;3.20;;
45232;SDS011;30969;51.052;17.056;2023-06-22T17:27:59;3.72;;;2.90;;
45232;SDS011;30969;51.052;17.056;2023-06-22T17:33:04;3.22;;;2.80;;
45232;SDS011;30969;51.052;17.056;2023-06-22T17:38:15;3.67;;;2.95;;
45232;SDS011;30969;51.052;17.056;2023-06-22T17:43:23;3.50;;;3.00;;
45232;SDS011;30969;51.052;17.056;2023-06-22T17:48:29;3.83;;;3.42;;
45232;SDS011;30969;51.052;17.056;2023-06-22T17:53:34;4.53;;;2.83;;
45232;SDS011;30969;51.052;17.056;2023-06-22T17:58:55;3.63;;;2.70;;
45232;SDS011;30969;51.052;17.056;2023-06-22T18:04:01;4.32;;;3.55;;
45232;SDS011;30969;51.052;17.056;2023-06-22T18:09:09;3.50;;;3.20;;
45232;SDS011;30969;51.052;17.056;2023-06-22T18:14:14;5.05;;;3.50;;
45232;SDS011;30969;51.052;17.056;2023-06-22T18:19:20;3.28;;;2.97;;
45232;SDS011;30969;51.052;17.056;2023-06-22T18:24:26;5.45;;;2.83;;
45232;SDS011;30969;51.052;17.056;2023-06-22T18:29:31;4.20;;;3.50;;
45232;SDS011;30969;51.052;17.056;2023-06-22T18:34:37;6.18;;;3.75;;
45232;SDS011;30969;51.052;17.056;2023-06-22T18:39:42;4.55;;;3.35;;
45232;SDS011;30969;51.052;17.056;2023-06-22T18:44:51;4.25;;;3.33;;
45232;SDS011;30969;51.052;17.056;2023-06-22T18:50:05;4.25;;;2.88;;
45232;SDS011;30969;51.052;17.056;2023-06-22T18:55:11;4.57;;;3.25;;
45232;SDS011;30969;51.052;17.056;2023-06-22T19:00:15;3.35;;;2.78;;
45232;SDS011;30969;51.052;17.056;2023-06-22T19:10:42;4.30;;;2.80;;
45232;SDS011;30969;51.052;17.056;2023-06-22T19:15:46;3.10;;;2.50;;
45232;SDS011;30969;51.052;17.056;2023-06-22T19:20:52;3.60;;;2.22;;
45232;SDS011;30969;51.052;17.056;2023-06-22T19:26:02;3.53;;;2.33;;
45232;SDS011;30969;51.052;17.056;2023-06-22T19:31:09;2.20;;;1.95;;
45232;SDS011;30969;51.052;17.056;2023-06-22T19:36:15;3.53;;;2.65;;
45232;SDS011;30969;51.052;17.056;2023-06-22T19:41:22;4.25;;;2.20;;
45232;SDS011;30969;51.052;17.056;2023-06-22T19:46:30;2.50;;;2.15;;
45232;SDS011;30969;51.052;17.056;2023-06-22T19:51:36;4.95;;;2.80;;
45232;SDS011;30969;51.052;17.056;2023-06-22T19:56:40;6.05;;;2.70;;
45232;SDS011;30969;51.052;17.056;2023-06-22T20:01:46;4.57;;;3.53;;
45232;SDS011;30969;51.052;17.056;2023-06-22T20:07:06;5.30;;;2.50;;
45232;SDS011;30969;51.052;17.056;2023-06-22T20:12:16;4.18;;;3.10;;
45232;SDS011;30969;51.052;17.056;2023-06-22T20:17:26;4.28;;;3.22;;
45232;SDS011;30969;51.052;17.056;2023-06-22T20:22:31;4.72;;;3.50;;
45232;SDS011;30969;51.052;17.056;2023-06-22T20:27:34;3.45;;;2.85;;
45232;SDS011;30969;51.052;17.056;2023-06-22T20:32:45;3.80;;;3.30;;
45232;SDS011;30969;51.052;17.056;2023-06-22T20:37:51;4.55;;;3.20;;
45232;SDS011;30969;51.052;17.056;2023-06-22T20:42:56;4.20;;;3.35;;
45232;SDS011;30969;51.052;17.056;2023-06-22T20:48:01;3.50;;;3.20;;
45232;SDS011;30969;51.052;17.056;2023-06-22T20:53:10;4.72;;;3.47;;
45232;SDS011;30969;51.052;17.056;2023-06-22T20:58:17;4.05;;;3.30;;
45232;SDS011;30969;51.052;17.056;2023-06-22T21:03:24;3.63;;;2.97;;
45232;SDS011;30969;51.052;17.056;2023-06-22T21:08:33;4.05;;;3.58;;
45232;SDS011;30969;51.052;17.056;2023-06-22T21:13:38;5.53;;;3.25;;
45232;SDS011;30969;51.052;17.056;2023-06-22T21:18:44;3.90;;;3.50;;
45232;SDS011;30969;51.052;17.056;2023-06-22T21:23:51;3.70;;;3.22;;
45232;SDS011;30969;51.052;17.056;2023-06-22T21:28:55;11.55;;;3.38;;
45232;SDS011;30969;51.052;17.056;2023-06-22T21:33:59;6.07;;;4.63;;
45232;SDS011;30969;51.052;17.056;2023-06-22T21:39:04;4.35;;;3.60;;
45232;SDS011;30969;51.052;17.056;2023-06-22T21:44:07;4.00;;;3.15;;
45232;SDS011;30969;51.052;17.056;2023-06-22T21:49:11;4.55;;;3.17;;
45232;SDS011;30969;51.052;17.056;2023-06-22T21:54:16;4.72;;;2.90;;
45232;SDS011;30969;51.052;17.056;2023-06-22T21:59:20;3.13;;;2.83;;
45232;SDS011;30969;51.052;17.056;2023-06-22T22:04:24;3.50;;;2.80;;
45232;SDS011;30969;51.052;17.056;2023-06-22T22:09:29;4.28;;;2.60;;
45232;SDS011;30969;51.052;17.056;2023-06-22T22:14:32;4.38;;;3.38;;
45232;SDS011;30969;51.052;17.056;2023-06-22T22:19:36;4.15;;;3.40;;
45232;SDS011;30969;51.052;17.056;2023-06-22T22:24:41;4.07;;;2.97;;
45232;SDS011;30969;51.052;17.056;2023-06-22T22:29:45;3.10;;;2.47;;
45232;SDS011;30969;51.052;17.056;2023-06-22T22:34:49;4.13;;;2.90;;
45232;SDS011;30969;51.052;17.056;2023-06-22T22:39:55;4.43;;;2.90;;
45232;SDS011;30969;51.052;17.056;2023-06-22T22:44:59;3.75;;;2.75;;
45232;SDS011;30969;51.052;17.056;2023-06-22T22:50:05;3.38;;;2.50;;
45232;SDS011;30969;51.052;17.056;2023-06-22T22:55:12;4.05;;;2.90;;
45232;SDS011;30969;51.052;17.056;2023-06-22T23:00:20;3.88;;;2.67;;
45232;SDS011;30969;51.052;17.056;2023-06-22T23:05:24;2.72;;;2.15;;
45232;SDS011;30969;51.052;17.056;2023-06-22T23:10:29;5.35;;;2.33;;
45232;SDS011;30969;51.052;17.056;2023-06-22T23:15:33;2.63;;;2.05;;
45232;SDS011;30969;51.052;17.056;2023-06-22T23:20:36;2.55;;;2.10;;
45232;SDS011;30969;51.052;17.056;2023-06-22T23:25:42;2.63;;;2.15;;
45232;SDS011;30969;51.052;17.056;2023-06-22T23:30:47;2.80;;;2.35;;
45232;SDS011;30969;51.052;17.056;2023-06-22T23:35:53;3.53;;;2.35;;
45232;SDS011;30969;51.052;17.056;2023-06-22T23:40:58;3.33;;;2.55;;
45232;SDS011;30969;51.052;17.056;2023-06-22T23:46:01;2.90;;;2.20;;
45232;SDS011;30969;51.052;17.056;2023-06-22T23:51:06;2.85;;;1.95;;
45232;SDS011;30969;51.052;17.056;2023-06-22T23:56:11;2.63;;;1.98;;
